Time;durP1;ratioP1;P1;durP2;ratioP2;P2;SDS_P1;SDS_P2;PMS_P1;PMS_P2;Temp;Humidity;BMP_temperature;BMP_pressure;BME280_temperature;BME280_humidity;BME280_pressure;Samples;Min_cycle;Max_cycle;Signal;HPM_P1;HPM_P2
2022/08/15 00:01:06;;;;;;;2.70;2.38;;;20.90;98.20;;;;;;4959199;28;20031;-51
2022/08/15 00:03:39;;;;;;;3.50;2.42;;;20.80;98.30;;;;;;4959705;28;20033;-49
2022/08/15 00:06:13;;;;;;;2.80;2.55;;;20.80;98.50;;;;;;4962679;28;20027;-53
2022/08/15 00:08:46;;;;;;;3.35;2.70;;;20.80;98.70;;;;;;4961647;28;20150;-51
2022/08/15 00:11:18;;;;;;;2.58;2.25;;;20.80;98.90;;;;;;4965408;28;20078;-58
2022/08/15 00:13:49;;;;;;;2.45;2.25;;;20.70;98.90;;;;;;4958109;28;20031;-53
2022/08/15 00:16:16;;;;;;;4.28;2.95;;;20.70;98.90;;;;;;4955814;28;20562;-49
2022/08/15 00:18:42;;;;;;;2.97;2.28;;;20.70;99.00;;;;;;4954981;28;20122;-52
2022/08/15 00:21:10;;;;;;;4.30;2.47;;;20.60;99.00;;;;;;4960408;28;20130;-52
2022/08/15 00:23:40;;;;;;;3.78;2.40;;;20.60;99.20;;;;;;4959182;28;20034;-54
2022/08/15 00:26:08;;;;;;;2.65;2.45;;;20.60;99.30;;;;;;4961156;28;20438;-55
2022/08/15 00:28:34;;;;;;;4.30;2.20;;;20.60;99.60;;;;;;4966593;28;20050;-55
2022/08/15 00:31:00;;;;;;;6.25;2.67;;;20.60;99.50;;;;;;4961962;28;20035;-52
2022/08/15 00:33:28;;;;;;;4.18;2.15;;;20.50;99.70;;;;;;4964617;28;20019;-53
2022/08/15 00:35:54;;;;;;;2.72;2.53;;;20.50;99.80;;;;;;4962603;28;20051;-49
2022/08/15 00:38:26;;;;;;;4.00;2.40;;;20.40;99.80;;;;;;4964509;28;20045;-50
2022/08/15 00:43:50;;;;;;;5.90;2.90;;;20.30;99.90;;;;;;4963308;28;20042;-48
2022/08/15 00:46:17;;;;;;;4.33;2.50;;;20.30;99.90;;;;;;4961853;28;20062;-54
2022/08/15 00:48:46;;;;;;;2.53;2.33;;;20.30;99.90;;;;;;4962562;28;20027;-51
2022/08/15 00:51:17;;;;;;;4.40;3.10;;;20.20;99.90;;;;;;4963339;28;20475;-52
2022/08/15 00:53:48;;;;;;;2.67;2.47;;;20.20;99.90;;;;;;4960819;28;20530;-53
2022/08/15 00:56:15;;;;;;;4.10;2.58;;;20.10;99.90;;;;;;4960246;28;20023;-53
2022/08/15 00:58:43;;;;;;;3.13;2.83;;;20.10;99.90;;;;;;4972224;28;20061;-57
2022/08/15 01:01:11;;;;;;;4.13;2.75;;;20.10;99.90;;;;;;4959335;28;20043;-51
2022/08/15 01:03:40;;;;;;;2.63;2.15;;;20.00;99.90;;;;;;4958478;28;20070;-52
2022/08/15 01:06:06;;;;;;;4.30;2.45;;;20.00;99.90;;;;;;4962579;28;20126;-54
2022/08/15 01:08:35;;;;;;;3.28;2.55;;;20.00;99.90;;;;;;4962294;28;20106;-50
2022/08/15 01:11:11;;;;;;;3.67;2.78;;;20.00;99.90;;;;;;4960955;28;20042;-55
2022/08/15 01:13:36;;;;;;;;;;;19.90;99.90;;;;;;4966534;28;20026;-55
2022/08/15 01:16:02;;;;;;;2.70;2.50;;;19.90;99.90;;;;;;4961728;28;20373;-53
2022/08/15 01:18:29;;;;;;;4.30;3.05;;;19.80;99.90;;;;;;4960841;28;20170;-53
2022/08/15 01:20:58;;;;;;;3.38;2.70;;;19.80;99.90;;;;;;4962255;28;20118;-52
2022/08/15 01:23:36;;;;;;;4.00;2.90;;;19.80;99.90;;;;;;4959479;28;20038;-49
2022/08/15 01:26:07;;;;;;;3.28;2.97;;;19.80;99.90;;;;;;4961328;28;20820;-49
2022/08/15 01:28:40;;;;;;;8.73;3.03;;;19.80;99.90;;;;;;4961241;28;20042;-51
2022/08/15 01:31:10;;;;;;;3.92;3.13;;;19.80;99.90;;;;;;4959262;28;20030;-54
2022/08/15 01:33:45;;;;;;;4.00;3.40;;;19.70;99.90;;;;;;4960432;28;20060;-54
2022/08/15 01:36:10;;;;;;;3.38;2.88;;;19.70;99.90;;;;;;4956450;28;20467;-49
2022/08/15 01:38:47;;;;;;;5.50;3.25;;;19.60;99.90;;;;;;4963944;28;20046;-51
2022/08/15 01:41:21;;;;;;;2.70;2.33;;;19.60;99.90;;;;;;4954550;28;20030;-52
2022/08/15 01:43:56;;;;;;;4.55;2.65;;;19.60;99.90;;;;;;4963450;28;20046;-53
2022/08/15 01:46:26;;;;;;;3.72;2.55;;;19.60;99.90;;;;;;4960416;28;20019;-51
2022/08/15 01:48:59;;;;;;;4.70;2.90;;;19.60;99.90;;;;;;4965161;28;20034;-51
2022/08/15 01:51:25;;;;;;;6.07;2.97;;;19.50;99.90;;;;;;4963434;28;20026;-54
2022/08/15 01:53:56;;;;;;;3.88;3.10;;;19.50;99.90;;;;;;4961064;28;20054;-54
2022/08/15 01:56:29;;;;;;;3.22;2.92;;;19.50;99.90;;;;;;4960274;28;20098;-50
2022/08/15 01:58:55;;;;;;;4.78;2.95;;;19.40;99.90;;;;;;4960450;28;20054;-52
2022/08/15 02:01:45;;;;;;;4.00;2.80;;;19.40;99.90;;;;;;4958597;28;20061;-53
2022/08/15 02:04:13;;;;;;;5.50;2.80;;;19.40;99.90;;;;;;4961156;28;20110;-49
2022/08/15 02:06:40;;;;;;;3.08;2.83;;;19.40;99.90;;;;;;4959919;28;20102;-55
2022/08/15 02:09:09;;;;;;;3.67;2.88;;;19.40;99.90;;;;;;4960681;28;20505;-51
2022/08/15 02:11:35;;;;;;;3.10;2.80;;;19.30;99.90;;;;;;4964512;28;20164;-52
2022/08/15 02:14:01;;;;;;;2.90;2.70;;;19.30;99.90;;;;;;4958968;28;20023;-54
2022/08/15 02:16:30;;;;;;;3.55;3.25;;;19.30;99.90;;;;;;4959832;28;20031;-52
2022/08/15 02:18:59;;;;;;;3.25;2.83;;;19.30;99.90;;;;;;4960851;28;20094;-51
2022/08/15 02:21:26;;;;;;;4.90;3.30;;;19.30;99.90;;;;;;4965880;28;20024;-54
2022/08/15 02:23:51;;;;;;;3.53;3.22;;;19.30;99.90;;;;;;4960048;28;20027;-52
2022/08/15 02:26:17;;;;;;;6.38;3.63;;;19.20;99.90;;;;;;4960617;28;20519;-53
2022/08/15 02:28:43;;;;;;;4.30;3.38;;;19.20;99.90;;;;;;4970411;28;20027;-51
2022/08/15 02:31:15;;;;;;;3.45;3.10;;;19.20;99.90;;;;;;4956474;28;20062;-49
2022/08/15 02:33:48;;;;;;;4.32;3.22;;;19.20;99.90;;;;;;4962747;28;20034;-50
2022/08/15 02:36:16;;;;;;;3.70;3.30;;;19.20;99.90;;;;;;4959461;28;20086;-53
2022/08/15 02:38:43;;;;;;;5.22;3.15;;;19.20;99.90;;;;;;4962090;28;20034;-52
2022/08/15 02:41:09;;;;;;;3.25;2.95;;;19.20;99.90;;;;;;4953367;28;20030;-54
2022/08/15 02:43:41;;;;;;;5.75;3.53;;;19.10;99.90;;;;;;4962273;28;20031;-53
2022/08/15 02:46:06;;;;;;;4.90;2.97;;;19.10;99.90;;;;;;4960163;28;20034;-53
2022/08/15 02:48:32;;;;;;;5.22;3.63;;;19.00;99.90;;;;;;4958411;28;20027;-51
2022/08/15 02:51:00;;;;;;;4.93;3.15;;;19.00;99.90;;;;;;4961388;28;20050;-52
2022/08/15 02:53:26;;;;;;;4.22;3.30;;;19.00;99.90;;;;;;4965150;28;20166;-51
2022/08/15 02:55:52;;;;;;;3.38;3.03;;;19.00;99.90;;;;;;4970220;28;20491;-51
2022/08/15 02:58:17;;;;;;;6.03;3.75;;;19.00;99.90;;;;;;4966158;28;20109;-56
2022/08/15 03:00:45;;;;;;;3.70;3.40;;;19.00;99.90;;;;;;4957736;28;20019;-55
2022/08/15 03:03:14;;;;;;;3.92;2.95;;;18.90;99.90;;;;;;4964129;28;20211;-51
2022/08/15 03:05:43;;;;;;;5.10;3.75;;;18.90;99.90;;;;;;4959689;28;20057;-52
2022/08/15 03:08:09;;;;;;;4.75;3.72;;;18.90;99.90;;;;;;4958299;28;20035;-53
2022/08/15 03:10:37;;;;;;;4.45;3.60;;;18.80;99.90;;;;;;4965121;28;20467;-54
2022/08/15 03:13:11;;;;;;;9.43;4.05;;;18.90;99.90;;;;;;4960395;28;20027;-53
2022/08/15 03:15:47;;;;;;;6.93;3.97;;;18.90;99.90;;;;;;4959183;28;20020;-54
2022/08/15 03:18:13;;;;;;;4.63;3.78;;;18.80;99.90;;;;;;4960315;28;20045;-50
2022/08/15 03:20:41;;;;;;;7.32;4.22;;;18.80;99.90;;;;;;4958894;28;20028;-55
2022/08/15 03:23:07;;;;;;;4.78;3.75;;;18.80;99.90;;;;;;4966951;28;20122;-54
2022/08/15 03:25:39;;;;;;;5.95;3.92;;;18.80;99.90;;;;;;4960598;28;20078;-52
2022/08/15 03:28:05;;;;;;;3.60;3.33;;;18.80;99.90;;;;;;4966615;28;20635;-51
2022/08/15 03:30:30;;;;;;;6.50;3.53;;;18.80;99.90;;;;;;4959076;28;20336;-54
2022/08/15 03:32:58;;;;;;;4.00;3.40;;;18.80;99.90;;;;;;4959379;28;20094;-52
2022/08/15 03:35:27;;;;;;;4.32;3.92;;;18.80;99.90;;;;;;4959675;28;20043;-53
2022/08/15 03:37:54;;;;;;;3.33;3.10;;;18.70;99.90;;;;;;4959441;28;20368;-50
2022/08/15 03:40:20;;;;;;;5.88;3.85;;;18.70;99.90;;;;;;4958999;28;20027;-55
2022/08/15 03:42:55;;;;;;;3.63;3.25;;;18.70;99.90;;;;;;4958336;28;20459;-49
2022/08/15 03:45:21;;;;;;;4.43;4.00;;;18.70;99.90;;;;;;4957213;28;20058;-54
2022/08/15 03:47:47;;;;;;;3.70;3.40;;;18.70;99.90;;;;;;4964937;28;20041;-50
2022/08/15 03:50:13;;;;;;;6.85;3.65;;;18.70;99.90;;;;;;4959379;28;20073;-53
2022/08/15 03:53:11;;;;;;;6.78;3.67;;;18.60;99.90;;;;;;4955936;28;20023;-50
2022/08/15 03:55:38;;;;;;;4.32;3.92;;;18.60;99.90;;;;;;4938853;28;20047;-54
2022/08/15 03:58:05;;;;;;;4.93;3.92;;;18.60;99.90;;;;;;4955105;28;20159;-53
2022/08/15 04:00:36;;;;;;;5.32;3.97;;;18.60;99.90;;;;;;4961724;28;20054;-55
2022/08/15 04:03:18;;;;;;;6.47;3.88;;;18.50;99.90;;;;;;4967209;28;20649;-51
2022/08/15 04:05:50;;;;;;;5.22;3.58;;;18.50;99.90;;;;;;4961787;28;20077;-54
2022/08/15 04:08:18;;;;;;;6.15;4.35;;;18.50;99.90;;;;;;4960906;28;20085;-52
2022/08/15 04:10:46;;;;;;;6.38;3.65;;;18.50;99.90;;;;;;4962312;28;20046;-53
2022/08/15 04:13:12;;;;;;;8.52;3.90;;;18.40;99.90;;;;;;4960083;28;20054;-53
2022/08/15 04:15:38;;;;;;;4.82;4.18;;;18.40;99.90;;;;;;4960389;28;20027;-52
2022/08/15 04:18:05;;;;;;;5.07;4.28;;;18.40;99.90;;;;;;4962962;28;20030;-51
2022/08/15 04:20:31;;;;;;;5.85;3.83;;;18.40;99.90;;;;;;4961699;28;20042;-54
2022/08/15 04:22:59;;;;;;;4.18;3.60;;;18.40;99.90;;;;;;4961353;28;20027;-55
2022/08/15 04:25:28;;;;;;;6.38;4.00;;;18.40;99.90;;;;;;4965360;28;20023;-52
2022/08/15 04:27:56;;;;;;;3.90;3.60;;;18.40;99.90;;;;;;4964334;28;20407;-51
2022/08/15 04:30:28;;;;;;;4.38;3.97;;;18.40;99.90;;;;;;4961826;28;20019;-51
2022/08/15 04:33:04;;;;;;;4.30;3.90;;;18.40;99.90;;;;;;4961430;28;20318;-51
2022/08/15 04:35:30;;;;;;;;;;;18.40;99.90;;;;;;4962157;28;20459;-52
2022/08/15 04:37:56;;;;;;;5.90;4.00;;;18.40;99.90;;;;;;4963340;28;20000;-52
2022/08/15 04:40:22;;;;;;;4.88;3.78;;;18.40;99.90;;;;;;4961312;28;20631;-53
2022/08/15 04:42:50;;;;;;;8.05;4.00;;;18.40;99.90;;;;;;4961795;28;20027;-55
2022/08/15 04:45:16;;;;;;;4.35;3.95;;;18.40;99.90;;;;;;4961870;28;20124;-51
2022/08/15 04:47:42;;;;;;;4.38;4.05;;;18.40;99.90;;;;;;4961392;28;20097;-54
2022/08/15 04:50:08;;;;;;;5.68;3.83;;;18.40;99.90;;;;;;4961329;28;20668;-51
2022/08/15 04:52:46;;;;;;;3.70;3.40;;;18.40;99.90;;;;;;4960903;28;20094;-55
2022/08/15 04:55:13;;;;;;;4.18;3.85;;;18.40;99.90;;;;;;4962920;28;20028;-51
2022/08/15 04:57:39;;;;;;;6.45;4.45;;;18.40;99.90;;;;;;4961168;28;20067;-50
2022/08/15 05:00:09;;;;;;;6.93;3.53;;;18.40;99.90;;;;;;4961816;28;20455;-51
2022/08/15 05:02:35;;;;;;;4.40;4.00;;;18.40;99.90;;;;;;4986693;23;20498;-61
2022/08/15 05:05:02;;;;;;;6.20;4.15;;;18.40;99.90;;;;;;4962838;28;20066;-61
2022/08/15 05:07:28;;;;;;;4.25;3.58;;;18.40;99.90;;;;;;4964776;28;20434;-60
2022/08/15 05:09:57;;;;;;;5.07;3.90;;;18.40;99.90;;;;;;4957422;28;20034;-60
2022/08/15 05:12:23;;;;;;;10.88;4.18;;;18.40;99.90;;;;;;4964064;28;20015;-58
2022/08/15 05:14:49;;;;;;;4.38;3.97;;;18.40;99.90;;;;;;4936088;28;20385;-60
2022/08/15 05:17:14;;;;;;;4.18;3.78;;;18.40;99.90;;;;;;4944447;28;20030;-60
2022/08/15 05:19:40;;;;;;;4.72;4.03;;;18.50;99.90;;;;;;4945109;28;20580;-59
2022/08/15 05:22:06;;;;;;;5.93;4.28;;;18.50;99.90;;;;;;4939337;28;20039;-60
2022/08/15 05:24:31;;;;;;;4.75;4.18;;;18.50;99.90;;;;;;4945515;28;20024;-58
2022/08/15 05:26:58;;;;;;;5.10;4.07;;;18.60;99.90;;;;;;4937840;28;20468;-58
2022/08/15 05:29:25;;;;;;;7.60;4.47;;;18.60;99.90;;;;;;4944657;28;20025;-59
2022/08/15 05:31:51;;;;;;;5.70;4.38;;;18.70;99.90;;;;;;4936590;28;20024;-60
2022/08/15 05:34:19;;;;;;;5.30;4.43;;;18.70;99.90;;;;;;4943339;28;20587;-60
2022/08/15 05:36:45;;;;;;;4.63;4.15;;;18.80;99.90;;;;;;4944910;28;20039;-58
2022/08/15 05:39:25;;;;;;;5.75;4.47;;;18.80;99.90;;;;;;4938431;28;20053;-60
2022/08/15 05:42:10;;;;;;;4.03;3.65;;;18.90;99.90;;;;;;4947620;28;20383;-57
2022/08/15 05:45:08;;;;;;;8.00;4.10;;;18.90;99.90;;;;;;4940442;28;20031;-60
2022/08/15 05:47:43;;;;;;;6.03;4.38;;;19.00;99.90;;;;;;4936452;28;20087;-57
2022/08/15 05:50:32;;;;;;;4.25;3.92;;;19.00;99.90;;;;;;4939802;28;20253;-57
2022/08/15 05:53:29;;;;;;;6.13;4.20;;;19.10;99.90;;;;;;4941668;28;20399;-59
2022/08/15 05:55:58;;;;;;;4.32;3.92;;;19.20;99.90;;;;;;4937731;28;20078;-58
2022/08/15 05:58:50;;;;;;;9.32;4.65;;;19.30;99.90;;;;;;4944301;28;20046;-61
2022/08/15 06:01:34;;;;;;;6.57;4.72;;;19.30;99.90;;;;;;4942831;28;20545;-60
2022/08/15 06:04:10;;;;;;;6.00;4.70;;;19.40;99.90;;;;;;4943561;28;20086;-60
2022/08/15 06:06:39;;;;;;;6.07;4.57;;;19.50;99.90;;;;;;4943552;28;20038;-60
2022/08/15 06:09:43;;;;;;;4.50;4.10;;;19.60;99.90;;;;;;4941587;28;20027;-60
2022/08/15 06:12:20;;;;;;;6.60;4.60;;;19.70;99.90;;;;;;4942641;28;20510;-60
2022/08/15 06:14:50;;;;;;;8.93;5.07;;;19.80;99.90;;;;;;4936530;28;20032;-59
2022/08/15 06:17:37;;;;;;;4.75;4.35;;;19.80;99.90;;;;;;4939371;28;20047;-60
2022/08/15 06:20:06;;;;;;;5.05;4.15;;;19.90;99.90;;;;;;4943286;28;20050;-60
2022/08/15 06:22:43;;;;;;;8.10;5.85;;;20.00;99.90;;;;;;4944494;28;20534;-59
2022/08/15 06:25:16;;;;;;;5.40;4.45;;;20.10;99.90;;;;;;4951489;28;20407;-58
2022/08/15 06:28:05;;;;;;;6.13;4.88;;;20.20;99.90;;;;;;4946478;28;20526;-60
2022/08/15 06:30:48;;;;;;;6.75;3.88;;;20.20;99.90;;;;;;4945817;28;20102;-59
2022/08/15 06:33:33;;;;;;;6.78;5.00;;;20.30;99.90;;;;;;4947238;28;20026;-61
2022/08/15 06:36:05;;;;;;;5.07;4.57;;;20.40;99.90;;;;;;4950072;28;20407;-60
2022/08/15 06:39:17;;;;;;;5.18;4.72;;;20.50;99.90;;;;;;4946609;28;20027;-58
2022/08/15 06:41:51;;;;;;;6.82;5.47;;;20.70;99.90;;;;;;4946100;28;20431;-60
2022/08/15 06:44:18;;;;;;;6.75;5.05;;;20.80;99.90;;;;;;4942433;28;20016;-59
2022/08/15 06:46:45;;;;;;;5.28;4.70;;;21.00;99.90;;;;;;4950184;28;20023;-60
2022/08/15 06:49:13;;;;;;;6.30;5.35;;;21.10;99.90;;;;;;4948250;28;20019;-60
2022/08/15 06:51:40;;;;;;;7.45;5.22;;;21.30;99.90;;;;;;4947879;28;20043;-60
2022/08/15 06:54:11;;;;;;;5.07;4.60;;;21.40;99.90;;;;;;4948686;28;20028;-61
2022/08/15 06:56:51;;;;;;;8.45;5.20;;;21.50;99.90;;;;;;4945603;28;20028;-60
2022/08/15 06:59:38;;;;;;;6.63;5.45;;;21.70;99.90;;;;;;4943952;28;20073;-60
2022/08/15 07:02:42;;;;;;;5.38;4.88;;;21.80;99.90;;;;;;4945551;28;20058;-61
2022/08/15 07:05:33;;;;;;;6.07;5.05;;;22.00;99.90;;;;;;4949078;28;20069;-61
2022/08/15 07:08:04;;;;;;;7.25;5.18;;;22.20;99.90;;;;;;4944741;28;20055;-60
2022/08/15 07:10:44;;;;;;;8.57;5.30;;;22.40;99.90;;;;;;4950782;28;20543;-60
2022/08/15 07:13:16;;;;;;;5.97;5.38;;;22.70;99.90;;;;;;4942371;28;20502;-60
2022/08/15 07:16:04;;;;;;;9.15;6.13;;;22.90;99.90;;;;;;4945972;28;20020;-62
2022/08/15 07:18:42;;;;;;;5.60;5.10;;;23.10;99.90;;;;;;4957150;28;20499;-61
2022/08/15 07:21:17;;;;;;;6.15;5.57;;;23.30;99.90;;;;;;4949007;28;20031;-59
2022/08/15 07:24:18;;;;;;;6.28;5.75;;;23.50;99.90;;;;;;4944349;28;20034;-61
2022/08/15 07:26:55;;;;;;;6.53;5.93;;;23.80;99.90;;;;;;4946858;28;20058;-60
2022/08/15 07:29:35;;;;;;;6.25;5.63;;;24.00;99.90;;;;;;4950691;28;20024;-60
2022/08/15 07:32:14;;;;;;;6.05;5.30;;;24.20;99.90;;;;;;4944925;28;20030;-60
2022/08/15 07:35:03;;;;;;;5.97;5.22;;;24.40;99.90;;;;;;4946649;28;20028;-60
2022/08/15 07:37:33;;;;;;;6.25;5.65;;;24.60;99.90;;;;;;4945144;28;20114;-60
2022/08/15 07:40:03;;;;;;;7.75;5.93;;;24.90;99.90;;;;;;4953214;28;20031;-61
2022/08/15 07:42:37;;;;;;;6.10;5.60;;;25.00;99.90;;;;;;4949092;28;20475;-60
2022/08/15 07:45:08;;;;;;;6.55;5.95;;;25.20;99.90;;;;;;4952232;28;20244;-60
2022/08/15 07:47:34;;;;;;;5.80;5.28;;;25.40;99.90;;;;;;4950354;28;20024;-60
2022/08/15 07:50:22;;;;;;;9.07;6.43;;;25.60;99.90;;;;;;4953047;28;20081;-61
2022/08/15 07:52:56;;;;;;;6.13;5.63;;;25.80;99.90;;;;;;4949296;28;20046;-60
2022/08/15 07:55:24;;;;;;;6.32;5.50;;;26.10;99.10;;;;;;4947508;28;20694;-60
2022/08/15 07:58:01;;;;;;;6.57;5.57;;;26.30;98.60;;;;;;4953840;28;20121;-60
2022/08/15 08:00:28;;;;;;;7.38;6.20;;;26.50;98.40;;;;;;4950887;28;20314;-59
2022/08/15 08:03:04;;;;;;;6.32;5.72;;;26.70;97.90;;;;;;4952580;28;20031;-60
2022/08/15 08:05:54;;;;;;;6.88;5.70;;;26.80;97.20;;;;;;4949759;28;20035;-60
2022/08/15 08:08:24;;;;;;;7.85;5.78;;;27.00;97.10;;;;;;4953011;28;20031;-62
2022/08/15 08:10:57;;;;;;;6.13;5.63;;;27.20;96.40;;;;;;4949163;28;20027;-62
2022/08/15 08:13:49;;;;;;;5.78;5.28;;;27.30;96.00;;;;;;4951887;28;20022;-62
2022/08/15 08:16:40;;;;;;;6.35;5.85;;;27.50;96.10;;;;;;4945055;28;20595;-60
2022/08/15 08:19:25;;;;;;;8.07;6.05;;;27.70;95.10;;;;;;4953227;28;20028;-60
2022/08/15 08:22:18;;;;;;;6.22;5.72;;;27.90;95.10;;;;;;4948499;28;20119;-61
2022/08/15 08:25:09;;;;;;;7.03;6.32;;;28.00;94.90;;;;;;4952192;28;20094;-61
2022/08/15 08:27:39;;;;;;;6.18;5.60;;;28.20;94.50;;;;;;4948774;28;20019;-60
2022/08/15 08:30:11;;;;;;;6.78;6.07;;;28.30;94.10;;;;;;4951758;28;20015;-57
2022/08/15 08:32:56;;;;;;;6.18;5.63;;;28.50;93.70;;;;;;4950645;28;20057;-60
2022/08/15 08:35:27;;;;;;;6.95;5.65;;;28.60;93.20;;;;;;4943091;28;20019;-60
2022/08/15 08:38:02;;;;;;;6.53;5.93;;;28.70;93.50;;;;;;4948478;28;20442;-62
2022/08/15 08:43:35;;;;;;;6.20;5.60;;;28.90;92.40;;;;;;4949877;28;20022;-60
2022/08/15 08:46:25;;;;;;;7.70;6.97;;;29.10;92.40;;;;;;4952380;28;20016;-61
2022/08/15 08:49:18;;;;;;;7.50;5.70;;;29.20;91.80;;;;;;4949141;28;20046;-59
2022/08/15 08:51:58;;;;;;;6.60;5.22;;;29.40;91.80;;;;;;4948518;28;20062;-60
2022/08/15 08:54:52;;;;;;;7.93;5.78;;;29.60;91.60;;;;;;4947046;28;20028;-59
2022/08/15 08:57:23;;;;;;;8.98;5.93;;;29.60;91.30;;;;;;4946062;28;20042;-60
2022/08/15 08:59:59;;;;;;;5.82;5.30;;;29.70;90.70;;;;;;4950041;28;20043;-59
2022/08/15 09:02:39;;;;;;;7.00;6.30;;;29.80;91.50;;;;;;4946955;28;20074;-59
2022/08/15 09:05:33;;;;;;;6.35;5.50;;;29.90;90.60;;;;;;4947696;28;20043;-60
2022/08/15 09:08:07;;;;;;;8.63;5.72;;;29.90;90.80;;;;;;4950279;28;20129;-59
2022/08/15 09:10:36;;;;;;;6.05;5.55;;;30.10;90.40;;;;;;4948210;28;20026;-60
2022/08/15 09:15:52;;;;;;;7.45;6.40;;;30.10;90.10;;;;;;4953510;28;20632;-60
2022/08/15 09:18:28;;;;;;;6.05;5.45;;;30.00;90.20;;;;;;4949109;28;20039;-62
2022/08/15 09:20:56;;;;;;;6.80;6.15;;;30.00;90.40;;;;;;4953595;28;20046;-60
2022/08/15 09:23:23;;;;;;;8.98;6.22;;;30.10;90.20;;;;;;4947247;28;20023;-57
2022/08/15 09:26:07;;;;;;;6.15;5.65;;;30.10;90.10;;;;;;4953244;28;20038;-59
2022/08/15 09:28:38;;;;;;;6.43;5.93;;;30.10;89.60;;;;;;4950331;28;20027;-59
2022/08/15 09:31:15;;;;;;;7.68;5.63;;;30.10;89.50;;;;;;4948418;28;20030;-60
2022/08/15 09:33:53;;;;;;;8.88;6.60;;;30.10;89.60;;;;;;4950915;28;20074;-60
2022/08/15 09:36:39;;;;;;;6.60;5.97;;;30.20;88.30;;;;;;4945505;28;20031;-61
2022/08/15 09:39:40;;;;;;;6.22;5.65;;;30.20;88.90;;;;;;4949821;28;20031;-60
2022/08/15 09:42:27;;;;;;;6.75;6.10;;;30.20;89.20;;;;;;4950055;28;20023;-60
2022/08/15 09:45:10;;;;;;;6.50;5.90;;;30.20;88.60;;;;;;4948867;28;20039;-60
2022/08/15 09:47:51;;;;;;;6.35;5.88;;;30.30;89.10;;;;;;4948071;28;20055;-58
2022/08/15 09:50:54;;;;;;;7.78;6.35;;;30.30;89.60;;;;;;4945101;28;20064;-61
2022/08/15 09:53:59;;;;;;;7.28;6.28;;;30.30;88.80;;;;;;4946998;28;20074;-60
2022/08/15 09:56:28;;;;;;;6.85;6.00;;;30.30;88.80;;;;;;4949677;28;20027;-61
2022/08/15 09:59:08;;;;;;;7.28;6.60;;;30.20;88.80;;;;;;4951749;28;20038;-59
2022/08/15 10:01:43;;;;;;;9.48;6.90;;;30.20;88.50;;;;;;4950317;28;20078;-61
2022/08/15 10:04:14;;;;;;;10.50;6.45;;;30.10;89.20;;;;;;4949427;28;20503;-60
2022/08/15 10:07:01;;;;;;;7.32;6.63;;;30.10;88.30;;;;;;4948019;28;20039;-58
2022/08/15 10:09:32;;;;;;;8.27;6.13;;;30.00;88.90;;;;;;4941616;28;20498;-61
2022/08/15 10:12:07;;;;;;;8.48;6.90;;;30.00;89.10;;;;;;4946903;28;20019;-62
2022/08/15 10:15:02;;;;;;;6.95;6.32;;;30.00;89.60;;;;;;4951814;28;20038;-61
2022/08/15 10:17:34;;;;;;;7.47;6.78;;;30.10;90.30;;;;;;4946310;28;20031;-61
2022/08/15 10:20:15;;;;;;;7.45;6.75;;;30.10;88.80;;;;;;4951067;28;20380;-60
2022/08/15 10:22:48;;;;;;;7.43;6.72;;;30.20;88.40;;;;;;4946974;28;20522;-61
2022/08/15 10:25:36;;;;;;;6.78;5.85;;;30.10;87.40;;;;;;4950044;28;20055;-61
2022/08/15 10:28:10;;;;;;;7.20;6.50;;;30.10;87.20;;;;;;4946516;28;20030;-58
2022/08/15 10:30:37;;;;;;;6.73;6.23;;;30.10;86.30;;;;;;4947611;28;20031;-62
2022/08/15 10:33:26;;;;;;;6.75;6.15;;;30.10;86.90;;;;;;4949473;28;20035;-62
2022/08/15 10:35:55;;;;;;;7.57;6.97;;;30.00;87.30;;;;;;4945397;28;20366;-61
2022/08/15 10:38:25;;;;;;;8.45;6.43;;;30.10;87.80;;;;;;4949166;28;20023;-61
2022/08/15 10:41:10;;;;;;;6.80;6.07;;;30.00;88.40;;;;;;4951533;28;20106;-61
2022/08/15 10:44:04;;;;;;;7.38;6.72;;;30.00;88.40;;;;;;4948181;28;20265;-60
2022/08/15 10:46:54;;;;;;;7.15;6.47;;;30.00;88.20;;;;;;4945720;28;20027;-62
2022/08/15 10:49:37;;;;;;;8.02;7.18;;;30.00;86.90;;;;;;4946179;28;20046;-61
2022/08/15 10:52:17;;;;;;;7.97;6.20;;;30.00;87.50;;;;;;4949228;28;20023;-61
2022/08/15 10:54:52;;;;;;;9.63;6.35;;;30.10;86.80;;;;;;4947628;28;20023;-62
2022/08/15 10:57:21;;;;;;;6.07;5.47;;;30.10;86.50;;;;;;4944498;28;20019;-60
2022/08/15 10:59:50;;;;;;;9.80;6.85;;;30.10;86.10;;;;;;4947880;28;20028;-60
2022/08/15 11:02:33;;;;;;;8.55;6.28;;;30.10;86.80;;;;;;4943327;28;20027;-61
2022/08/15 11:05:06;;;;;;;7.75;6.00;;;30.10;86.80;;;;;;4974198;23;20146;-55
2022/08/15 11:07:36;;;;;;;8.88;6.70;;;30.10;86.90;;;;;;4949256;28;20023;-53
2022/08/15 11:10:14;;;;;;;6.88;6.32;;;30.20;85.90;;;;;;4945947;28;20078;-53
2022/08/15 11:12:46;;;;;;;7.10;6.47;;;30.20;86.60;;;;;;4947906;28;20103;-54
2022/08/15 11:15:20;;;;;;;7.18;6.60;;;30.20;86.00;;;;;;4941318;28;20058;-50
2022/08/15 11:17:50;;;;;;;7.38;6.78;;;30.20;86.60;;;;;;4933232;29;20040;-52
2022/08/15 11:20:19;;;;;;;8.77;6.63;;;30.20;86.90;;;;;;4939219;29;20066;-50
2022/08/15 11:22:55;;;;;;;10.57;6.72;;;30.30;87.00;;;;;;4930730;29;20128;-54
2022/08/15 11:25:28;;;;;;;8.32;6.28;;;30.30;85.80;;;;;;4937075;28;20076;-51
2022/08/15 11:28:05;;;;;;;6.32;5.80;;;30.20;86.50;;;;;;4927997;29;20038;-53
2022/08/15 11:30:35;;;;;;;7.20;6.60;;;30.20;86.40;;;;;;4929433;29;20623;-48
2022/08/15 11:33:34;;;;;;;7.50;6.90;;;30.20;86.80;;;;;;4937895;28;20510;-52
2022/08/15 11:36:06;;;;;;;7.90;7.10;;;30.30;86.80;;;;;;4928872;29;20028;-52
2022/08/15 11:38:35;;;;;;;7.80;7.07;;;30.30;85.60;;;;;;4933160;29;20028;-51
2022/08/15 11:41:01;;;;;;;7.55;6.35;;;30.30;84.80;;;;;;4941050;29;20047;-51
2022/08/15 11:43:27;;;;;;;7.18;6.55;;;30.20;86.20;;;;;;4932405;29;20024;-53
2022/08/15 11:45:54;;;;;;;8.00;7.20;;;30.30;86.10;;;;;;4938788;29;20445;-56
2022/08/15 11:48:33;;;;;;;8.77;6.35;;;30.20;86.00;;;;;;4931081;29;20063;-54
2022/08/15 11:51:23;;;;;;;7.88;6.45;;;30.30;86.20;;;;;;4934857;29;20495;-55
2022/08/15 11:54:07;;;;;;;7.32;6.65;;;30.40;85.30;;;;;;4929651;29;20035;-52
2022/08/15 11:56:57;;;;;;;7.70;6.28;;;30.50;84.90;;;;;;4942192;29;20034;-54
2022/08/15 11:59:27;;;;;;;7.05;6.45;;;30.60;83.80;;;;;;4926494;29;20074;-51
2022/08/15 12:02:07;;;;;;;6.63;6.07;;;30.70;82.90;;;;;;4939732;28;20054;-53
2022/08/15 12:04:35;;;;;;;8.50;5.45;;;30.70;81.60;;;;;;4929615;29;20357;-52
2022/08/15 12:07:10;;;;;;;6.68;6.07;;;30.50;82.70;;;;;;4937416;28;20416;-55
2022/08/15 12:09:35;;;;;;;6.50;5.90;;;30.60;82.80;;;;;;4927108;29;20036;-56
2022/08/15 12:12:01;;;;;;;6.22;5.72;;;30.50;82.20;;;;;;4935530;28;20035;-49
2022/08/15 12:14:29;;;;;;;7.40;6.63;;;30.40;83.10;;;;;;4938442;28;20647;-51
2022/08/15 12:17:05;;;;;;;6.65;6.05;;;30.30;83.60;;;;;;4934417;29;20137;-53
2022/08/15 12:19:37;;;;;;;6.88;6.20;;;30.20;83.80;;;;;;4935976;29;20062;-55
2022/08/15 12:22:08;;;;;;;6.60;6.00;;;30.20;83.70;;;;;;4931160;29;20102;-54
2022/08/15 12:24:37;;;;;;;6.90;6.20;;;30.20;84.10;;;;;;4935551;28;20075;-52
2022/08/15 12:27:06;;;;;;;8.00;6.15;;;30.30;83.50;;;;;;4930647;29;20031;-54
2022/08/15 12:29:33;;;;;;;7.07;6.38;;;30.40;83.50;;;;;;4936278;29;20215;-54
2022/08/15 12:32:02;;;;;;;7.95;6.65;;;30.30;84.50;;;;;;4933204;29;20028;-54
2022/08/15 12:34:34;;;;;;;7.15;6.43;;;30.20;84.30;;;;;;4941308;28;20032;-55
2022/08/15 12:37:02;;;;;;;7.90;7.10;;;30.20;84.60;;;;;;4931455;29;20032;-51
2022/08/15 12:39:27;;;;;;;7.30;6.30;;;30.10;84.00;;;;;;4943750;29;20030;-52
2022/08/15 12:41:54;;;;;;;7.47;6.80;;;30.00;83.90;;;;;;4937257;28;20027;-55
2022/08/15 12:44:27;;;;;;;7.82;7.13;;;30.00;83.90;;;;;;4938294;29;20027;-52
2022/08/15 12:46:54;;;;;;;6.95;6.30;;;30.10;84.20;;;;;;4938312;28;20039;-54
2022/08/15 12:49:20;;;;;;;8.90;6.55;;;30.20;84.60;;;;;;4935610;29;20028;-53
2022/08/15 12:51:46;;;;;;;7.13;6.43;;;30.30;84.20;;;;;;4937238;28;20027;-53
2022/08/15 12:54:12;;;;;;;9.63;6.78;;;30.40;82.60;;;;;;4930112;29;20031;-55
2022/08/15 12:56:38;;;;;;;9.10;6.82;;;30.40;83.10;;;;;;4945293;28;20035;-53
2022/08/15 12:59:05;;;;;;;8.52;7.18;;;30.50;84.10;;;;;;4935956;28;20086;-53
2022/08/15 13:01:35;;;;;;;7.95;7.07;;;30.70;83.20;;;;;;4939171;29;20106;-50
2022/08/15 13:04:04;;;;;;;8.93;6.78;;;30.90;81.60;;;;;;4935203;28;20039;-54
2022/08/15 13:06:42;;;;;;;7.65;6.60;;;30.90;81.40;;;;;;4937385;29;20152;-52
2022/08/15 13:09:09;;;;;;;6.95;6.25;;;30.90;81.60;;;;;;4933078;28;20031;-54
2022/08/15 13:11:38;;;;;;;7.53;6.80;;;30.80;82.80;;;;;;4935288;29;20029;-53
2022/08/15 13:14:04;;;;;;;9.80;6.38;;;30.70;83.40;;;;;;4942657;28;20055;-49
2022/08/15 13:16:31;;;;;;;8.63;6.53;;;30.60;83.80;;;;;;4934179;29;20021;-55
2022/08/15 13:19:00;;;;;;;8.70;6.47;;;30.50;84.20;;;;;;4942107;28;20031;-52
2022/08/15 13:24:10;;;;;;;6.85;6.22;;;30.30;84.10;;;;;;4939073;28;20067;-51
2022/08/15 13:26:40;;;;;;;6.38;5.95;;;30.30;83.90;;;;;;4930429;29;20040;-51
2022/08/15 13:29:06;;;;;;;7.18;6.57;;;30.50;83.30;;;;;;4936269;28;20019;-54
2022/08/15 13:31:31;;;;;;;6.10;5.60;;;30.60;82.90;;;;;;4933212;29;20035;-54